Time;durP1;ratioP1;P1;durP2;ratioP2;P2;SDS_P1;SDS_P2;PMS_P1;PMS_P2;Temp;Humidity;BMP_temperature;BMP_pressure;BME280_temperature;BME280_humidity;BME280_pressure;Samples;Min_cycle;Max_cycle;Signal;HPM_P1;HPM_P2
2022/03/20 00:02:41;;;;;;;37.80;21.08;;;;;;;;;;6244736;28;20064;-65
2022/03/20 00:05:45;;;;;;;35.67;18.77;;;;;;;;;;6244008;28;20698;-65
2022/03/20 00:08:46;;;;;;;36.47;18.17;;;;;;;;;;6243429;28;20082;-65
2022/03/20 00:11:46;;;;;;;48.08;21.60;;;;;;;;;;6243837;28;20037;-65
2022/03/20 00:14:46;;;;;;;45.25;18.83;;;;;;;;;;6243368;28;20104;-65
2022/03/20 00:17:47;;;;;;;41.58;18.50;;;;;;;;;;6242379;28;20100;-65
2022/03/20 00:20:49;;;;;;;43.63;18.98;;;;;;;;;;6243431;28;20029;-65
2022/03/20 00:23:49;;;;;;;39.50;18.48;;;;;;;;;;6243676;28;20643;-65
2022/03/20 00:26:56;;;;;;;42.83;19.92;;;;;;;;;;6242927;28;20019;-65
2022/03/20 00:29:56;;;;;;;42.08;20.23;;;;;;;;;;6243975;28;20025;-65
2022/03/20 00:32:57;;;;;;;46.08;20.02;;;;;;;;;;6243486;28;20016;-65
2022/03/20 00:35:57;;;;;;;43.97;19.25;;;;;;;;;;6243046;28;20469;-65
2022/03/20 00:38:57;;;;;;;46.70;21.70;;;;;;;;;;6243509;28;20440;-65
2022/03/20 00:41:58;;;;;;;40.92;20.08;;;;;;;;;;6241356;28;20048;-65
2022/03/20 00:44:58;;;;;;;47.63;20.02;;;;;;;;;;6225788;28;20067;-65
2022/03/20 00:47:58;;;;;;;46.50;20.27;;;;;;;;;;6243421;28;20481;-65
2022/03/20 00:51:03;;;;;;;43.47;19.27;;;;;;;;;;6243205;28;20032;-65
2022/03/20 00:54:03;;;;;;;39.72;18.70;;;;;;;;;;6243117;28;20049;-65
2022/03/20 00:57:04;;;;;;;43.00;18.63;;;;;;;;;;6255294;28;20044;-65
2022/03/20 01:00:05;;;;;;;36.72;15.50;;;;;;;;;;6255136;28;20084;-65
2022/03/20 01:03:06;;;;;;;46.38;20.30;;;;;;;;;;6234440;28;20124;-65
2022/03/20 01:06:07;;;;;;;43.67;18.58;;;;;;;;;;6221590;28;20378;-65
2022/03/20 01:09:07;;;;;;;35.03;17.60;;;;;;;;;;6227704;28;20013;-65
2022/03/20 01:12:08;;;;;;;38.22;18.20;;;;;;;;;;6227695;28;20021;-65
2022/03/20 01:15:10;;;;;;;38.35;18.40;;;;;;;;;;6245291;28;20391;-65
2022/03/20 01:18:10;;;;;;;39.47;18.30;;;;;;;;;;6246146;28;20021;-65
2022/03/20 01:21:12;;;;;;;41.15;17.75;;;;;;;;;;6246572;28;20032;-65
2022/03/20 01:24:12;;;;;;;38.77;17.27;;;;;;;;;;6247528;28;20416;-65
2022/03/20 01:27:13;;;;;;;34.05;17.50;;;;;;;;;;6246989;28;20335;-65
2022/03/20 01:30:13;;;;;;;39.65;20.00;;;;;;;;;;6247533;28;20029;-65
2022/03/20 01:33:14;;;;;;;43.70;18.85;;;;;;;;;;6243750;28;20037;-65
2022/03/20 01:36:14;;;;;;;34.77;17.80;;;;;;;;;;6222705;28;20167;-65
2022/03/20 01:39:15;;;;;;;40.05;17.55;;;;;;;;;;6235564;28;20862;-64
2022/03/20 01:42:15;;;;;;;32.78;16.08;;;;;;;;;;6244699;28;20033;-64
2022/03/20 01:45:16;;;;;;;34.15;17.65;;;;;;;;;;6242429;28;20018;-64
2022/03/20 01:48:16;;;;;;;33.67;20.37;;;;;;;;;;6235559;28;20024;-64
2022/03/20 01:51:17;;;;;;;34.42;15.68;;;;;;;;;;6246863;28;20589;-64
2022/03/20 01:54:17;;;;;;;30.63;16.63;;;;;;;;;;6246172;28;20045;-64
2022/03/20 01:57:22;;;;;;;34.38;15.25;;;;;;;;;;6250033;28;20022;-65
2022/03/20 02:00:24;;;;;;;36.38;15.73;;;;;;;;;;6246596;28;20029;-65
2022/03/20 02:03:25;;;;;;;37.63;16.63;;;;;;;;;;6246540;28;20043;-65
2022/03/20 02:06:26;;;;;;;32.80;16.23;;;;;;;;;;6246383;28;20029;-65
2022/03/20 02:09:26;;;;;;;40.25;16.27;;;;;;;;;;6246158;28;20022;-65
2022/03/20 02:12:28;;;;;;;27.98;13.57;;;;;;;;;;6246337;28;20022;-65
2022/03/20 02:15:29;;;;;;;36.83;16.38;;;;;;;;;;6245803;28;20093;-64
2022/03/20 02:18:31;;;;;;;38.90;17.60;;;;;;;;;;6245883;28;20018;-65
2022/03/20 02:21:34;;;;;;;35.78;17.98;;;;;;;;;;6245901;28;20032;-65
2022/03/20 02:24:40;;;;;;;41.22;17.73;;;;;;;;;;6245688;28;20028;-64
2022/03/20 02:27:41;;;;;;;38.03;18.83;;;;;;;;;;6245801;28;20017;-64
2022/03/20 02:30:42;;;;;;;31.60;15.32;;;;;;;;;;6246134;28;20469;-64
2022/03/20 02:33:42;;;;;;;36.40;15.85;;;;;;;;;;6245375;28;20393;-64
2022/03/20 02:36:42;;;;;;;36.90;18.17;;;;;;;;;;6245417;28;20025;-64
2022/03/20 02:39:43;;;;;;;33.17;16.13;;;;;;;;;;6245667;28;20021;-64
2022/03/20 02:42:45;;;;;;;37.30;15.70;;;;;;;;;;6242723;28;20014;-65
2022/03/20 02:45:45;;;;;;;40.95;17.65;;;;;;;;;;6245826;28;20029;-65
2022/03/20 02:48:46;;;;;;;35.42;16.98;;;;;;;;;;6244808;28;20115;-65
2022/03/20 02:51:46;;;;;;;37.17;18.08;;;;;;;;;;6246096;28;20362;-65
2022/03/20 02:54:46;;;;;;;42.63;17.55;;;;;;;;;;6244995;28;20041;-65
2022/03/20 02:57:47;;;;;;;34.67;18.23;;;;;;;;;;6263242;28;20090;-65
2022/03/20 03:00:47;;;;;;;38.90;19.45;;;;;;;;;;6249900;28;20021;-65
2022/03/20 03:03:48;;;;;;;32.70;16.60;;;;;;;;;;6245452;28;20032;-65
2022/03/20 03:06:48;;;;;;;36.35;18.77;;;;;;;;;;6226689;28;20022;-65
2022/03/20 03:13:08;;;;;;;36.45;18.23;;;;;;;;;;6245267;28;20389;-64
2022/03/20 03:16:09;;;;;;;27.15;16.92;;;;;;;;;;6244562;28;20018;-64
2022/03/20 03:19:12;;;;;;;36.65;15.73;;;;;;;;;;6244489;28;20049;-64
2022/03/20 03:22:12;;;;;;;41.13;19.67;;;;;;;;;;6245035;28;20021;-65
2022/03/20 03:25:13;;;;;;;42.95;18.02;;;;;;;;;;6244561;28;20040;-65
2022/03/20 03:28:13;;;;;;;36.38;17.88;;;;;;;;;;6243515;28;20034;-65
2022/03/20 03:31:13;;;;;;;43.53;17.55;;;;;;;;;;6244484;28;20025;-65
2022/03/20 03:37:33;;;;;;;42.20;18.45;;;;;;;;;;6237398;28;20025;-65
2022/03/20 03:40:33;;;;;;;38.72;17.13;;;;;;;;;;6244218;28;20090;-65
2022/03/20 03:43:33;;;;;;;38.58;16.98;;;;;;;;;;6229086;28;20156;-65
2022/03/20 03:46:34;;;;;;;37.70;17.02;;;;;;;;;;6243394;28;20028;-65
2022/03/20 03:49:35;;;;;;;35.58;17.90;;;;;;;;;;6244146;28;20022;-65
2022/03/20 03:52:35;;;;;;;35.63;17.63;;;;;;;;;;6244162;28;20045;-65
2022/03/20 03:55:36;;;;;;;35.83;17.77;;;;;;;;;;6244326;28;20025;-65
2022/03/20 03:58:36;;;;;;;36.63;17.85;;;;;;;;;;6244722;28;20040;-65
2022/03/20 04:01:36;;;;;;;36.72;18.73;;;;;;;;;;6244801;28;20040;-65
2022/03/20 04:04:38;;;;;;;38.65;19.48;;;;;;;;;;6243664;28;20033;-65
2022/03/20 04:07:38;;;;;;;38.47;18.70;;;;;;;;;;6243734;28;20018;-65
2022/03/20 04:10:38;;;;;;;46.40;18.95;;;;;;;;;;6235745;28;20496;-66
2022/03/20 04:13:40;;;;;;;40.17;20.35;;;;;;;;;;6227380;28;20080;-66
2022/03/20 04:16:40;;;;;;;41.55;19.33;;;;;;;;;;6219201;28;20030;-65
2022/03/20 04:19:41;;;;;;;36.45;17.52;;;;;;;;;;6219334;28;20065;-65
2022/03/20 04:23:42;;;;;;;38.00;18.83;;;;;;;;;;6228325;28;20029;-64
2022/03/20 04:26:05;;;;;;;44.25;20.58;;;;;;;;;;6243509;28;20481;-65
2022/03/20 04:29:05;;;;;;;39.03;20.25;;;;;;;;;;6242625;28;20037;-65
2022/03/20 04:32:06;;;;;;;35.13;15.80;;;;;;;;;;6243560;28;20021;-65
2022/03/20 04:35:07;;;;;;;33.08;18.02;;;;;;;;;;6243311;28;20461;-65
2022/03/20 04:38:07;;;;;;;36.47;19.05;;;;;;;;;;6243630;28;20064;-65
2022/03/20 04:41:08;;;;;;;27.30;11.85;;;;;;;;;;6245798;28;20045;-65
2022/03/20 04:44:12;;;;;;;41.15;19.42;;;;;;;;;;6246022;28;20029;-65
2022/03/20 05:00:27;;;;;;;39.13;20.42;;;;;;;;;;6267009;28;20037;-65
2022/03/20 05:03:31;;;;;;;34.72;16.92;;;;;;;;;;6248212;28;20032;-65
2022/03/20 05:06:32;;;;;;;36.20;18.65;;;;;;;;;;6247809;28;20087;-65
2022/03/20 05:16:10;;;;;;;38.25;17.13;;;;;;;;;;6247837;28;20040;-65
2022/03/20 05:19:10;;;;;;;44.28;19.33;;;;;;;;;;6247497;28;20109;-65
2022/03/20 05:22:10;;;;;;;50.53;19.83;;;;;;;;;;6247425;28;20044;-65
2022/03/20 05:25:10;;;;;;;43.83;20.58;;;;;;;;;;6247128;28;20075;-65
2022/03/20 05:28:11;;;;;;;40.78;18.73;;;;;;;;;;6247090;28;20500;-65
2022/03/20 05:31:11;;;;;;;44.75;21.08;;;;;;;;;;6247250;28;20485;-65
2022/03/20 05:34:12;;;;;;;43.72;21.75;;;;;;;;;;6243239;28;20758;-65
2022/03/20 05:37:12;;;;;;;41.78;20.80;;;;;;;;;;6242855;28;20021;-65
2022/03/20 05:40:13;;;;;;;42.45;21.70;;;;;;;;;;6240353;28;20066;-64
2022/03/20 05:43:14;;;;;;;46.47;21.20;;;;;;;;;;6240648;28;20077;-65
2022/03/20 05:46:15;;;;;;;38.08;21.25;;;;;;;;;;6246640;28;20037;-64
2022/03/20 05:49:15;;;;;;;43.20;20.92;;;;;;;;;;6246842;28;20045;-64
2022/03/20 05:52:16;;;;;;;38.60;22.17;;;;;;;;;;6245837;28;20136;-64
2022/03/20 05:55:16;;;;;;;40.33;23.55;;;;;;;;;;6246795;28;20028;-64
2022/03/20 05:58:16;;;;;;;47.03;23.73;;;;;;;;;;6262855;28;20374;-64
2022/03/20 06:01:17;;;;;;;39.95;22.90;;;;;;;;;;6247274;28;20026;-64
2022/03/20 06:04:17;;;;;;;46.22;23.58;;;;;;;;;;6246267;28;20384;-64
2022/03/20 06:07:18;;;;;;;41.28;23.25;;;;;;;;;;6241270;28;20053;-65
2022/03/20 06:10:18;;;;;;;38.47;22.27;;;;;;;;;;6241101;28;20401;-65
2022/03/20 06:13:19;;;;;;;37.50;20.65;;;;;;;;;;6240007;28;20048;-65
2022/03/20 06:16:21;;;;;;;36.38;22.98;;;;;;;;;;6242248;28;20014;-65
2022/03/20 06:19:22;;;;;;;41.63;23.00;;;;;;;;;;6244467;28;20473;-65
2022/03/20 06:22:22;;;;;;;39.03;21.88;;;;;;;;;;6237798;28;20033;-65
2022/03/20 06:25:22;;;;;;;38.95;21.17;;;;;;;;;;6238971;28;20017;-65
2022/03/20 06:28:23;;;;;;;41.70;21.58;;;;;;;;;;6222339;28;20041;-65
2022/03/20 06:31:23;;;;;;;41.13;22.85;;;;;;;;;;6244965;28;20029;-65
2022/03/20 06:34:23;;;;;;;40.28;22.00;;;;;;;;;;6243308;28;20610;-65
2022/03/20 06:37:24;;;;;;;39.08;19.40;;;;;;;;;;6233915;28;20043;-65
2022/03/20 06:40:24;;;;;;;40.53;21.65;;;;;;;;;;6239703;28;20021;-65
2022/03/20 06:43:24;;;;;;;40.15;21.65;;;;;;;;;;6238865;28;20481;-65
2022/03/20 06:46:27;;;;;;;38.28;21.83;;;;;;;;;;6237578;28;20490;-65
2022/03/20 06:49:27;;;;;;;37.58;19.40;;;;;;;;;;6225637;28;20014;-65
2022/03/20 06:52:28;;;;;;;40.35;21.42;;;;;;;;;;6234727;28;20037;-65
2022/03/20 06:55:30;;;;;;;39.10;20.77;;;;;;;;;;6243974;28;20041;-65
2022/03/20 06:58:30;;;;;;;33.97;22.48;;;;;;;;;;6254819;28;20059;-65
2022/03/20 07:01:30;;;;;;;39.42;19.77;;;;;;;;;;6240058;28;20056;-65
2022/03/20 07:04:31;;;;;;;39.35;20.80;;;;;;;;;;6217263;28;20021;-65
2022/03/20 07:07:34;;;;;;;40.20;21.98;;;;;;;;;;6226887;28;20487;-65
2022/03/20 07:10:35;;;;;;;38.83;21.13;;;;;;;;;;6233638;28;20401;-65
2022/03/20 07:13:50;;;;;;;44.22;21.45;;;;;;;;;;6218377;28;20045;-66
2022/03/20 07:16:52;;;;;;;37.58;19.83;;;;;;;;;;6215627;28;20801;-65
2022/03/20 07:19:52;;;;;;;43.13;22.83;;;;;;;;;;6228111;28;20017;-65
2022/03/20 07:22:52;;;;;;;37.97;20.35;;;;;;;;;;6223199;28;20037;-65
2022/03/20 07:29:31;;;;;;;35.72;19.33;;;;;;;;;;6241493;28;20026;-65
2022/03/20 07:32:31;;;;;;;36.17;19.63;;;;;;;;;;6240695;28;20029;-65
2022/03/20 07:35:32;;;;;;;33.25;19.27;;;;;;;;;;6226977;28;20100;-65
2022/03/20 07:38:33;;;;;;;36.65;21.42;;;;;;;;;;6236584;28;20044;-65
2022/03/20 07:41:33;;;;;;;34.08;18.95;;;;;;;;;;6236273;28;20086;-66
2022/03/20 07:44:33;;;;;;;36.95;20.23;;;;;;;;;;6235194;28;20017;-66
2022/03/20 07:47:33;;;;;;;30.92;17.40;;;;;;;;;;6223265;28;20477;-66
2022/03/20 07:50:34;;;;;;;37.35;18.48;;;;;;;;;;6229602;28;20026;-66
2022/03/20 07:53:35;;;;;;;31.77;18.55;;;;;;;;;;6239700;28;20048;-66
2022/03/20 07:56:35;;;;;;;26.20;16.63;;;;;;;;;;6245141;28;20273;-66
2022/03/20 07:59:35;;;;;;;30.05;16.27;;;;;;;;;;6227782;28;20029;-66
2022/03/20 08:02:36;;;;;;;35.13;20.58;;;;;;;;;;6228970;28;20026;-66
2022/03/20 08:05:36;;;;;;;34.22;16.98;;;;;;;;;;6225742;28;20022;-66
2022/03/20 08:08:39;;;;;;;30.20;18.20;;;;;;;;;;6240298;28;20021;-66
2022/03/20 08:11:39;;;;;;;32.08;16.10;;;;;;;;;;6225111;28;20037;-66
2022/03/20 08:14:41;;;;;;;24.13;14.57;;;;;;;;;;6231075;28;20105;-66
2022/03/20 08:17:42;;;;;;;26.67;14.77;;;;;;;;;;6227836;28;20500;-66
2022/03/20 08:20:43;;;;;;;30.48;17.90;;;;;;;;;;6241819;28;20026;-66
2022/03/20 08:23:43;;;;;;;29.00;16.50;;;;;;;;;;6243262;28;20610;-66
2022/03/20 08:26:43;;;;;;;33.35;20.17;;;;;;;;;;6234902;28;20488;-66
2022/03/20 08:29:44;;;;;;;28.65;13.88;;;;;;;;;;6236713;28;20021;-66
2022/03/20 08:32:47;;;;;;;25.50;15.30;;;;;;;;;;6241276;28;20034;-66
2022/03/20 08:35:47;;;;;;;28.80;17.13;;;;;;;;;;6232064;28;20025;-66
2022/03/20 08:38:47;;;;;;;30.65;16.55;;;;;;;;;;6230239;28;20017;-66
2022/03/20 08:41:48;;;;;;;25.48;15.38;;;;;;;;;;6237000;28;20041;-66
2022/03/20 08:44:50;;;;;;;26.67;16.20;;;;;;;;;;6242976;28;20026;-67
2022/03/20 08:47:51;;;;;;;26.83;16.13;;;;;;;;;;6229706;28;20390;-66
2022/03/20 08:50:51;;;;;;;25.30;13.40;;;;;;;;;;6221347;28;20026;-66
2022/03/20 08:53:51;;;;;;;25.08;13.18;;;;;;;;;;6222851;28;20050;-66
2022/03/20 08:56:52;;;;;;;24.70;13.05;;;;;;;;;;6234429;28;20026;-66
2022/03/20 08:59:54;;;;;;;26.02;14.38;;;;;;;;;;6219439;28;20069;-66
2022/03/20 09:02:54;;;;;;;23.45;12.85;;;;;;;;;;6238087;28;20462;-66
2022/03/20 09:05:55;;;;;;;20.23;13.30;;;;;;;;;;6224224;28;20105;-66
2022/03/20 09:08:55;;;;;;;26.58;13.40;;;;;;;;;;6216504;28;20014;-66
2022/03/20 09:11:55;;;;;;;21.55;13.18;;;;;;;;;;6232613;28;20472;-66
2022/03/20 09:14:56;;;;;;;20.75;10.93;;;;;;;;;;6234981;28;20030;-66
2022/03/20 09:21:15;;;;;;;20.48;12.68;;;;;;;;;;6221512;28;20034;-66
2022/03/20 09:24:15;;;;;;;18.27;11.43;;;;;;;;;;6222489;28;20516;-66
2022/03/20 09:27:15;;;;;;;22.05;11.15;;;;;;;;;;6226236;28;20028;-66
2022/03/20 09:30:16;;;;;;;20.05;11.77;;;;;;;;;;6225867;28;20018;-66
2022/03/20 09:33:16;;;;;;;21.27;11.35;;;;;;;;;;6230912;28;20022;-66
2022/03/20 09:36:16;;;;;;;18.50;10.48;;;;;;;;;;6224796;28;20025;-66
2022/03/20 09:39:17;;;;;;;19.80;11.07;;;;;;;;;;6221584;28;20021;-66
2022/03/20 09:42:18;;;;;;;24.58;11.70;;;;;;;;;;6226900;28;20116;-66
2022/03/20 09:45:19;;;;;;;16.85;11.02;;;;;;;;;;6233321;28;20022;-66
2022/03/20 09:48:20;;;;;;;18.42;11.02;;;;;;;;;;6228341;28;20580;-66
2022/03/20 09:51:21;;;;;;;21.55;12.60;;;;;;;;;;6224710;28;20060;-66
2022/03/20 09:54:21;;;;;;;20.30;11.55;;;;;;;;;;6229170;28;20053;-66
2022/03/20 09:57:25;;;;;;;21.35;11.48;;;;;;;;;;6217094;28;20022;-66
2022/03/20 10:00:26;;;;;;;22.30;12.05;;;;;;;;;;6244321;28;20481;-67
2022/03/20 10:03:26;;;;;;;19.67;12.55;;;;;;;;;;6242540;28;20131;-66
2022/03/20 10:06:26;;;;;;;19.65;10.73;;;;;;;;;;6230339;28;20025;-66
2022/03/20 10:09:27;;;;;;;19.23;11.50;;;;;;;;;;6231269;28;20025;-66
2022/03/20 10:12:31;;;;;;;20.15;11.00;;;;;;;;;;6237357;28;20022;-66
2022/03/20 10:15:32;;;;;;;17.45;10.70;;;;;;;;;;6234224;28;20021;-66
2022/03/20 10:18:33;;;;;;;18.67;9.77;;;;;;;;;;6242744;28;20497;-66
2022/03/20 10:21:46;;;;;;;19.45;10.70;;;;;;;;;;6238964;28;20021;-66
2022/03/20 10:24:49;;;;;;;20.23;10.68;;;;;;;;;;6241764;28;20481;-66
2022/03/20 10:27:57;;;;;;;17.10;10.00;;;;;;;;;;6231921;28;20038;-66
2022/03/20 10:30:58;;;;;;;16.48;10.35;;;;;;;;;;6239428;28;20027;-66
2022/03/20 10:34:05;;;;;;;18.30;10.05;;;;;;;;;;6239730;28;20025;-66
2022/03/20 10:37:05;;;;;;;18.42;10.18;;;;;;;;;;6240063;28;20021;-66
2022/03/20 10:40:09;;;;;;;19.75;10.88;;;;;;;;;;6236623;28;20540;-66
2022/03/20 10:43:16;;;;;;;23.58;10.70;;;;;;;;;;6224833;28;20026;-66
2022/03/20 10:46:20;;;;;;;15.65;9.60;;;;;;;;;;6232025;28;20035;-66
2022/03/20 10:49:21;;;;;;;20.42;11.02;;;;;;;;;;6232494;28;20029;-66
2022/03/20 10:52:22;;;;;;;21.25;11.15;;;;;;;;;;6230805;28;20068;-66
2022/03/20 10:55:30;;;;;;;18.88;10.95;;;;;;;;;;6239045;28;20037;-66
2022/03/20 10:58:30;;;;;;;17.25;9.13;;;;;;;;;;6237650;28;20489;-66
2022/03/20 11:01:35;;;;;;;21.55;11.10;;;;;;;;;;6231249;28;20436;-66
2022/03/20 11:04:35;;;;;;;17.88;11.13;;;;;;;;;;6238860;28;20082;-66
2022/03/20 11:07:36;;;;;;;17.67;10.30;;;;;;;;;;6219939;28;20030;-66
2022/03/20 11:10:36;;;;;;;20.02;11.82;;;;;;;;;;6233620;28;20027;-66
2022/03/20 11:13:38;;;;;;;17.42;10.65;;;;;;;;;;6233350;28;20031;-66
2022/03/20 11:16:39;;;;;;;17.03;10.60;;;;;;;;;;6235387;28;20025;-66
2022/03/20 11:19:46;;;;;;;20.25;11.20;;;;;;;;;;6239163;28;20017;-66
2022/03/20 11:22:50;;;;;;;20.13;13.02;;;;;;;;;;6217381;28;20048;-66
2022/03/20 11:25:51;;;;;;;26.70;13.93;;;;;;;;;;6237302;28;20558;-66
2022/03/20 11:28:54;;;;;;;20.50;10.30;;;;;;;;;;6235343;28;20056;-66
2022/03/20 11:31:55;;;;;;;15.25;9.27;;;;;;;;;;6237372;28;20389;-66
2022/03/20 11:34:56;;;;;;;20.60;13.13;;;;;;;;;;6238748;28;20108;-66
2022/03/20 11:38:11;;;;;;;15.27;10.90;;;;;;;;;;6241763;28;20021;-66
2022/03/20 11:41:20;;;;;;;15.90;9.98;;;;;;;;;;6220163;28;20570;-66
2022/03/20 11:44:20;;;;;;;21.35;10.95;;;;;;;;;;6200391;28;20025;-66
2022/03/20 11:47:22;;;;;;;23.77;11.88;;;;;;;;;;6228727;28;20014;-66
2022/03/20 11:50:26;;;;;;;21.48;11.68;;;;;;;;;;6234968;28;20024;-66
2022/03/20 11:53:27;;;;;;;18.20;11.23;;;;;;;;;;6233746;28;20461;-66
2022/03/20 11:56:28;;;;;;;22.45;10.93;;;;;;;;;;6243849;28;20017;-66
2022/03/20 11:59:43;;;;;;;14.93;8.37;;;;;;;;;;6239032;28;20025;-66
2022/03/20 12:03:13;;;;;;;15.68;9.60;;;;;;;;;;6241681;28;20025;-66
2022/03/20 12:06:21;;;;;;;15.05;8.77;;;;;;;;;;6169718;28;20029;-66
2022/03/20 12:09:28;;;;;;;17.08;10.35;;;;;;;;;;6223235;28;20044;-67
2022/03/20 12:13:00;;;;;;;17.42;10.02;;;;;;;;;;6233685;28;20024;-65
2022/03/20 12:16:00;;;;;;;13.18;7.85;;;;;;;;;;6213902;28;20129;-65
2022/03/20 12:19:07;;;;;;;17.53;8.57;;;;;;;;;;6240646;28;20021;-66
2022/03/20 12:22:14;;;;;;;13.45;7.78;;;;;;;;;;6233364;28;20284;-66
2022/03/20 12:25:34;;;;;;;17.05;10.55;;;;;;;;;;6233931;28;20477;-66
2022/03/20 12:28:35;;;;;;;18.17;9.98;;;;;;;;;;6221092;28;20461;-66
2022/03/20 12:31:53;;;;;;;17.52;10.57;;;;;;;;;;6230640;28;20025;-67
2022/03/20 12:34:56;;;;;;;14.30;8.05;;;;;;;;;;6264322;28;20033;-66
2022/03/20 12:37:57;;;;;;;23.08;10.23;;;;;;;;;;6225585;28;20069;-66
2022/03/20 12:41:04;;;;;;;14.68;9.15;;;;;;;;;;6231127;28;20021;-66
2022/03/20 12:44:08;;;;;;;17.20;10.27;;;;;;;;;;6235095;28;20548;-66
2022/03/20 12:47:08;;;;;;;18.30;9.88;;;;;;;;;;6243281;28;20049;-66
2022/03/20 12:50:09;;;;;;;17.13;10.05;;;;;;;;;;6237286;28;20018;-66
2022/03/20 12:53:12;;;;;;;13.63;9.03;;;;;;;;;;6224693;28;20050;-66
2022/03/20 12:56:26;;;;;;;17.35;9.82;;;;;;;;;;6226791;28;20276;-66
2022/03/20 12:59:26;;;;;;;18.77;10.48;;;;;;;;;;6224378;28;20076;-66
2022/03/20 13:02:27;;;;;;;20.10;10.50;;;;;;;;;;6235021;28;20030;-66
2022/03/20 13:05:28;;;;;;;17.17;9.80;;;;;;;;;;6231598;28;20071;-66
2022/03/20 13:08:31;;;;;;;15.43;8.68;;;;;;;;;;6241346;28;20024;-67
2022/03/20 13:14:55;;;;;;;16.58;10.85;;;;;;;;;;6236946;28;20033;-67
2022/03/20 13:17:56;;;;;;;19.73;9.60;;;;;;;;;;6233840;28;20022;-67
2022/03/20 13:20:57;;;;;;;19.30;10.30;;;;;;;;;;6223831;28;20044;-67
2022/03/20 13:23:57;;;;;;;16.13;9.35;;;;;;;;;;6223303;28;20025;-67
2022/03/20 13:26:58;;;;;;;19.05;9.88;;;;;;;;;;6224487;28;20022;-67
2022/03/20 13:30:00;;;;;;;15.50;8.50;;;;;;;;;;6222461;28;20381;-67
2022/03/20 13:33:01;;;;;;;19.20;12.02;;;;;;;;;;6228094;28;20014;-67
2022/03/20 13:36:07;;;;;;;31.13;16.98;;;;;;;;;;6222835;28;20032;-67
2022/03/20 13:39:09;;;;;;;16.45;9.40;;;;;;;;;;6220841;28;20017;-67
2022/03/20 13:42:32;;;;;;;15.13;8.73;;;;;;;;;;6228578;28;20022;-67
2022/03/20 13:45:33;;;;;;;17.85;9.63;;;;;;;;;;6223331;28;20033;-67
2022/03/20 13:48:36;;;;;;;15.23;9.15;;;;;;;;;;6227133;28;20026;-67
2022/03/20 13:51:37;;;;;;;12.70;8.13;;;;;;;;;;6236522;28;20125;-67
2022/03/20 13:54:39;;;;;;;15.93;8.75;;;;;;;;;;6238387;28;20061;-67
2022/03/20 13:57:50;;;;;;;16.70;9.68;;;;;;;;;;6246864;28;20452;-67
2022/03/20 14:01:00;;;;;;;13.57;8.88;;;;;;;;;;6245440;28;20025;-67
2022/03/20 14:04:08;;;;;;;15.10;8.45;;;;;;;;;;6245436;28;20017;-67
2022/03/20 14:07:21;;;;;;;12.57;8.38;;;;;;;;;;6242540;28;20117;-67
2022/03/20 14:10:22;;;;;;;15.23;9.43;;;;;;;;;;6242592;28;20044;-67
2022/03/20 14:13:22;;;;;;;16.20;8.23;;;;;;;;;;6242228;28;20025;-67
2022/03/20 14:16:22;;;;;;;15.48;8.38;;;;;;;;;;6246411;28;20168;-67
2022/03/20 14:19:22;;;;;;;16.55;8.68;;;;;;;;;;6245708;28;20021;-67
2022/03/20 14:22:23;;;;;;;14.60;7.40;;;;;;;;;;6244545;28;20080;-67
2022/03/20 14:25:42;;;;;;;12.93;8.23;;;;;;;;;;6231113;28;20389;-67
2022/03/20 14:28:42;;;;;;;13.05;7.22;;;;;;;;;;6239130;28;20401;-67
2022/03/20 14:41:57;;;;;;;13.20;8.00;;;;;;;;;;6236128;28;20092;-67
2022/03/20 14:44:58;;;;;;;12.20;7.72;;;;;;;;;;6239865;28;20108;-67
2022/03/20 14:47:59;;;;;;;13.27;7.37;;;;;;;;;;6245446;28;20018;-67
2022/03/20 14:51:00;;;;;;;16.07;7.97;;;;;;;;;;6245242;28;20072;-67
2022/03/20 14:54:01;;;;;;;13.43;6.70;;;;;;;;;;6244814;28;20616;-67
2022/03/20 14:57:01;;;;;;;15.43;7.93;;;;;;;;;;6252216;28;20476;-67
2022/03/20 15:00:01;;;;;;;12.27;7.27;;;;;;;;;;6244408;28;20029;-67
2022/03/20 15:03:02;;;;;;;12.57;7.37;;;;;;;;;;6245021;28;20394;-67
2022/03/20 15:06:03;;;;;;;12.73;7.63;;;;;;;;;;6244419;28;20467;-67
2022/03/20 15:12:24;;;;;;;13.38;8.10;;;;;;;;;;6244722;28;20025;-67
2022/03/20 15:15:25;;;;;;;11.30;6.07;;;;;;;;;;6244560;28;20021;-67
2022/03/20 15:18:25;;;;;;;15.43;7.80;;;;;;;;;;6244782;28;20017;-67
2022/03/20 15:21:26;;;;;;;12.73;6.40;;;;;;;;;;6244170;28;20072;-67
2022/03/20 15:24:27;;;;;;;10.45;6.18;;;;;;;;;;6243498;28;20026;-67
2022/03/20 15:27:27;;;;;;;10.80;6.03;;;;;;;;;;6234798;28;20053;-67
2022/03/20 15:30:27;;;;;;;11.07;5.80;;;;;;;;;;6234750;28;20040;-67
2022/03/20 15:33:30;;;;;;;9.93;5.17;;;;;;;;;;6231517;28;20030;-67
2022/03/20 15:36:35;;;;;;;10.52;5.43;;;;;;;;;;6222849;28;20453;-68
2022/03/20 15:39:35;;;;;;;8.35;5.00;;;;;;;;;;6222483;28;20022;-68
2022/03/20 15:42:35;;;;;;;11.37;6.00;;;;;;;;;;6223486;28;20080;-68
2022/03/20 15:45:35;;;;;;;10.97;6.50;;;;;;;;;;6221819;28;20466;-68
2022/03/20 15:48:36;;;;;;;12.07;5.83;;;;;;;;;;6217072;28;20018;-66
2022/03/20 15:51:37;;;;;;;9.87;5.03;;;;;;;;;;6219984;28;20022;-66
2022/03/20 15:54:38;;;;;;;11.02;6.15;;;;;;;;;;6199971;28;20132;-66
2022/03/20 15:57:38;;;;;;;11.40;5.60;;;;;;;;;;6223834;28;20473;-66
2022/03/20 16:00:38;;;;;;;9.73;6.47;;;;;;;;;;6226628;28;20030;-66
2022/03/20 16:03:39;;;;;;;10.98;5.18;;;;;;;;;;6219983;28;20362;-66
2022/03/20 16:06:39;;;;;;;10.57;5.73;;;;;;;;;;6218011;28;20044;-67
2022/03/20 16:09:39;;;;;;;11.40;5.60;;;;;;;;;;6234349;28;20097;-67
2022/03/20 16:12:40;;;;;;;12.32;6.32;;;;;;;;;;6243684;28;20021;-66
2022/03/20 16:15:44;;;;;;;11.00;5.45;;;;;;;;;;6241677;28;20021;-66
2022/03/20 16:18:44;;;;;;;15.00;6.13;;;;;;;;;;6218889;28;20092;-66
2022/03/20 16:21:44;;;;;;;13.82;6.72;;;;;;;;;;6218762;28;20026;-66
2022/03/20 16:31:27;;;;;;;16.50;6.95;;;;;;;;;;6241838;28;20045;-66
2022/03/20 16:34:27;;;;;;;17.50;8.48;;;;;;;;;;6243649;28;20399;-66
2022/03/20 16:37:28;;;;;;;19.00;7.60;;;;;;;;;;6245151;28;20033;-66
2022/03/20 16:40:28;;;;;;;12.35;6.20;;;;;;;;;;6227476;28;20030;-66
2022/03/20 16:43:28;;;;;;;15.00;7.63;;;;;;;;;;6233020;28;20022;-67
2022/03/20 16:46:29;;;;;;;13.88;7.85;;;;;;;;;;6248541;28;20538;-66
2022/03/20 16:49:29;;;;;;;15.32;8.02;;;;;;;;;;6242966;28;20452;-66
2022/03/20 16:52:29;;;;;;;21.08;11.70;;;;;;;;;;6234577;28;20085;-66
2022/03/20 16:55:29;;;;;;;21.08;11.40;;;;;;;;;;6234785;28;20013;-66
2022/03/20 16:58:30;;;;;;;23.90;11.65;;;;;;;;;;6236356;28;20667;-66
2022/03/20 17:01:30;;;;;;;20.08;11.77;;;;;;;;;;6242847;28;20034;-66
2022/03/20 17:04:30;;;;;;;24.88;10.73;;;;;;;;;;6240571;28;20216;-66
2022/03/20 17:07:31;;;;;;;21.70;10.57;;;;;;;;;;6228703;28;20018;-66
2022/03/20 17:10:32;;;;;;;16.80;10.35;;;;;;;;;;6210759;28;20017;-66
2022/03/20 17:13:32;;;;;;;17.45;9.85;;;;;;;;;;6247025;28;20024;-66
2022/03/20 17:16:33;;;;;;;19.30;8.27;;;;;;;;;;6243095;28;20564;-66
2022/03/20 17:19:33;;;;;;;20.08;10.63;;;;;;;;;;6236973;28;20408;-66
2022/03/20 17:22:36;;;;;;;29.13;12.32;;;;;;;;;;6244736;28;20021;-66
2022/03/20 17:25:36;;;;;;;24.58;11.65;;;;;;;;;;6245455;28;20096;-66
2022/03/20 17:28:38;;;;;;;25.65;12.93;;;;;;;;;;6248492;28;20748;-66
2022/03/20 17:31:38;;;;;;;31.30;14.45;;;;;;;;;;6239311;28;20484;-66
2022/03/20 17:34:38;;;;;;;29.70;12.30;;;;;;;;;;6239359;28;20029;-66
2022/03/20 17:37:39;;;;;;;27.23;14.43;;;;;;;;;;6242924;28;20097;-66
2022/03/20 17:40:40;;;;;;;30.10;14.15;;;;;;;;;;6241698;28;20117;-66
2022/03/20 17:43:40;;;;;;;28.90;15.18;;;;;;;;;;6239021;28;20477;-66
2022/03/20 17:46:41;;;;;;;28.48;12.63;;;;;;;;;;6242699;28;20092;-66
2022/03/20 17:49:41;;;;;;;33.85;12.88;;;;;;;;;;6242322;28;20377;-66
2022/03/20 17:52:41;;;;;;;26.88;13.02;;;;;;;;;;6237802;28;20409;-66
2022/03/20 17:55:46;;;;;;;29.90;13.52;;;;;;;;;;6239443;28;20124;-66
2022/03/20 17:58:46;;;;;;;31.10;11.55;;;;;;;;;;6244922;28;20029;-66
2022/03/20 18:01:46;;;;;;;27.52;11.68;;;;;;;;;;6240205;28;20079;-66
2022/03/20 18:08:06;;;;;;;28.45;14.18;;;;;;;;;;6242417;28;20393;-66
2022/03/20 18:11:08;;;;;;;33.50;17.52;;;;;;;;;;6244053;28;20083;-66
2022/03/20 18:14:08;;;;;;;39.15;16.23;;;;;;;;;;6244949;28;20106;-66
2022/03/20 18:17:09;;;;;;;32.22;15.65;;;;;;;;;;6241293;28;20598;-66
2022/03/20 18:20:10;;;;;;;46.65;16.88;;;;;;;;;;6244882;28;20025;-66
2022/03/20 18:23:11;;;;;;;36.35;17.25;;;;;;;;;;6246134;28;20050;-66
2022/03/20 18:26:11;;;;;;;37.30;17.17;;;;;;;;;;6270702;28;20021;-66
2022/03/20 18:29:12;;;;;;;35.33;16.65;;;;;;;;;;6245569;28;20029;-66
2022/03/20 18:32:13;;;;;;;39.00;17.55;;;;;;;;;;6241897;28;20029;-66
2022/03/20 18:35:15;;;;;;;36.28;14.45;;;;;;;;;;6239477;28;20018;-66
2022/03/20 18:38:15;;;;;;;;;;;;;;;;;;6225363;28;20044;-66
2022/03/20 18:41:16;;;;;;;39.67;17.25;;;;;;;;;;6221266;28;19913;-66
2022/03/20 18:44:16;;;;;;;41.50;19.42;;;;;;;;;;6221639;28;20448;-66